createdAt,value
2018-04-15T00:00:52.898Z,38.7
2018-04-15T00:01:52.918Z,38.89
2018-04-15T00:02:52.943Z,38.98
2018-04-15T00:03:52.973Z,38.98
2018-04-15T00:04:52.985Z,39.47
2018-04-15T00:05:53.015Z,38.98
2018-04-15T00:06:53.029Z,39.37
2018-04-15T00:07:53.101Z,39.56
2018-04-15T00:08:53.096Z,39.28
2018-04-15T00:09:52.847Z,39.37
2018-04-15T00:10:53.120Z,39.56
2018-04-15T00:11:52.888Z,39.28
2018-04-15T00:12:53.165Z,39.18
2018-04-15T00:13:53.186Z,39.56
2018-04-15T00:14:53.212Z,39.28
2018-04-15T00:15:52.974Z,39.56
2018-04-15T00:16:53.251Z,39.28
2018-04-15T00:17:53.270Z,39.47
2018-04-15T00:18:53.297Z,39.56
2018-04-15T00:19:53.064Z,39.85
2018-04-15T00:20:53.333Z,39.65
2018-04-15T00:21:53.357Z,39.56
2018-04-15T00:22:53.127Z,39.75
2018-04-15T00:23:53.403Z,39.85
2018-04-15T00:24:53.172Z,39.75
2018-04-15T00:25:53.447Z,40.04
2018-04-15T00:26:53.484Z,39.94
2018-04-15T00:27:53.496Z,39.56
2018-04-15T00:28:53.527Z,39.83
2018-04-15T00:29:53.541Z,39.92
2018-04-15T00:30:53.566Z,40.21
2018-04-15T00:31:53.340Z,40.14
2018-04-15T00:32:53.606Z,40.14
2018-04-15T00:33:53.630Z,40.14
2018-04-15T00:34:53.649Z,40.23
2018-04-15T00:35:53.678Z,40.04
2018-04-15T00:36:53.700Z,40.42
2018-04-15T00:37:53.724Z,40.23
2018-04-15T00:38:53.798Z,39.94
2018-04-15T00:39:53.507Z,40.41
2018-04-15T00:40:53.788Z,40.41
2018-04-15T00:41:53.804Z,40.41
2018-04-15T00:42:53.830Z,40.42
2018-04-15T00:43:53.847Z,40.81
2018-04-15T00:44:53.869Z,40.78
2018-04-15T00:45:53.888Z,40.78
2018-04-15T00:46:53.911Z,40.23
2018-04-15T00:47:53.935Z,40.61
2018-04-15T00:48:53.956Z,40.21
2018-04-15T00:49:54.034Z,40.59
2018-04-15T00:50:54.004Z,40.78
2018-04-15T00:51:54.023Z,40.69
2018-04-15T00:52:54.046Z,40.5
2018-04-15T00:53:54.064Z,40.69
2018-04-15T00:54:54.098Z,40.78
2018-04-15T00:55:54.098Z,40.98
2018-04-15T00:56:54.119Z,40.69
2018-04-15T00:57:54.137Z,40.88
2018-04-15T00:58:54.165Z,40.78
2018-04-15T00:59:54.185Z,40.88
2018-04-15T01:00:54.206Z,40.88
2018-04-15T01:01:54.237Z,40.88
2018-04-15T01:02:54.264Z,40.9
2018-04-15T01:03:54.285Z,40.98
2018-04-15T01:04:54.303Z,41.27
2018-04-15T01:05:54.074Z,41.17
2018-04-15T01:06:54.087Z,41.27
2018-04-15T01:07:54.357Z,40.78
2018-04-15T01:08:54.394Z,41.07
2018-04-15T01:09:54.418Z,41.27
2018-04-15T01:10:54.438Z,41.36
2018-04-15T01:11:54.463Z,41.36
2018-04-15T01:12:54.483Z,41.46
2018-04-15T01:13:54.507Z,41.27
2018-04-15T01:14:54.527Z,41.17
2018-04-15T01:15:54.293Z,41.27
2018-04-15T01:16:54.311Z,41.55
2018-04-15T01:17:54.598Z,41.46
2018-04-15T01:18:54.359Z,41.17
2018-04-15T01:19:54.377Z,41.17
2018-04-15T01:20:54.652Z,41.46
2018-04-15T01:21:54.682Z,41.55
2018-04-15T01:22:54.705Z,41.07
2018-04-15T01:23:54.716Z,41.07
2018-04-15T01:24:54.751Z,41.36
2018-04-15T01:25:54.762Z,41.27
2018-04-15T01:26:54.794Z,41.27
2018-04-15T01:27:54.805Z,41.55
2018-04-15T01:28:54.578Z,41.55
2018-04-15T01:29:54.850Z,41.07
2018-04-15T01:30:54.873Z,41.36
2018-04-15T01:31:54.642Z,41.36
2018-04-15T01:32:54.919Z,41.94
2018-04-15T01:33:54.936Z,42.13
2018-04-15T01:34:54.963Z,42.6
2018-04-15T01:35:54.728Z,41.55
2018-04-15T01:36:55.000Z,41.07
2018-04-15T01:37:55.028Z,41.46
2018-04-15T01:38:55.040Z,41.55
2018-04-15T01:39:54.807Z,41.91
2018-04-15T01:40:55.096Z,42.41
2018-04-15T01:41:55.102Z,42.22
2018-04-15T01:42:55.123Z,42.03
2018-04-15T01:43:55.146Z,42.13
2018-04-15T01:44:55.167Z,41.94
2018-04-15T01:45:54.933Z,42.22
2018-04-15T01:46:54.955Z,42.22
2018-04-15T01:47:55.230Z,42.22
2018-04-15T01:48:55.258Z,42.22
2018-04-15T01:49:55.282Z,42.49
2018-04-15T01:50:55.045Z,42.87
2018-04-15T01:51:55.320Z,43.26
2018-04-15T01:52:55.346Z,43.35
2018-04-15T01:53:55.368Z,43.26
2018-04-15T01:54:55.134Z,43.54
2018-04-15T01:55:55.407Z,43.26
2018-04-15T01:56:55.432Z,42.97
2018-04-15T01:57:55.451Z,43.16
2018-04-15T01:58:55.482Z,43.35
2018-04-15T01:59:55.236Z,43.35
2018-04-15T02:00:55.513Z,43.35
2018-04-15T02:01:55.537Z,43.44
2018-04-15T02:02:55.556Z,43.73
2018-04-15T02:03:55.577Z,43.73
2018-04-15T02:04:55.345Z,43.73
2018-04-15T02:05:55.367Z,43.26
2018-04-15T02:06:55.642Z,43.83
2018-04-15T02:07:55.661Z,43.83
2018-04-15T02:08:55.686Z,43.92
2018-04-15T02:09:55.703Z,44.21
2018-04-15T02:10:55.716Z,43.92
2018-04-15T02:11:55.740Z,44.48
2018-04-15T02:12:55.765Z,44.57
2018-04-15T02:13:55.784Z,45.05
2018-04-15T02:14:55.804Z,44.86
2018-04-15T02:15:55.827Z,45.05
2018-04-15T02:16:55.595Z,45.15
2018-04-15T02:17:55.878Z,44.95
2018-04-15T02:18:55.903Z,45.24
2018-04-15T02:19:55.918Z,45.24
2018-04-15T02:20:55.939Z,45.05
2018-04-15T02:21:55.957Z,45.24
2018-04-15T02:22:55.977Z,45.24
2018-04-15T02:23:55.747Z,45.53
2018-04-15T02:24:56.023Z,45.34
2018-04-15T02:25:56.044Z,45.05
2018-04-15T02:26:55.810Z,45.34
2018-04-15T02:27:55.830Z,45.15
2018-04-15T02:28:56.105Z,45.24
2018-04-15T02:29:56.124Z,45.24
2018-04-15T02:30:56.156Z,45.53
2018-04-15T02:31:56.170Z,45.34
2018-04-15T02:32:56.212Z,45.53
2018-04-15T02:33:56.210Z,45.24
2018-04-15T02:34:55.976Z,45.62
2018-04-15T02:35:56.254Z,45.53
2018-04-15T02:36:56.270Z,45.62
2018-04-15T02:37:56.303Z,45.43
2018-04-15T02:38:56.316Z,45.62
2018-04-15T02:39:56.081Z,45.53
2018-04-15T02:40:56.361Z,45.62
2018-04-15T02:41:56.135Z,45.43
2018-04-15T02:42:56.400Z,45.43
2018-04-15T02:43:56.427Z,45.81
2018-04-15T02:44:56.437Z,45.53
2018-04-15T02:45:56.463Z,45.15
2018-04-15T02:46:56.479Z,45.53
2018-04-15T02:47:56.504Z,45.24
2018-04-15T02:48:56.268Z,45.43
2018-04-15T02:49:56.291Z,45.62
2018-04-15T02:50:56.314Z,45.24
2018-04-15T02:51:56.583Z,45.81
2018-04-15T02:52:56.606Z,45.91
2018-04-15T02:53:56.626Z,45.43
2018-04-15T02:54:56.643Z,45.62
2018-04-15T02:55:56.675Z,45.62
2018-04-15T02:56:56.692Z,46.01
2018-04-15T02:57:56.709Z,45.72
2018-04-15T02:58:56.731Z,46.2
2018-04-15T02:59:56.770Z,47.03
2018-04-15T03:00:56.775Z,47.03
2018-04-15T03:01:56.539Z,47.42
2018-04-15T03:02:56.810Z,47.32
2018-04-15T03:03:56.829Z,47.03
2018-04-15T03:04:56.851Z,47.23
2018-04-15T03:05:56.868Z,47.13
2018-04-15T03:06:56.645Z,47.13
2018-04-15T03:07:56.921Z,47.52
2018-04-15T03:08:56.687Z,47.42
2018-04-15T03:09:56.955Z,47.52
2018-04-15T03:10:56.981Z,47.42
2018-04-15T03:11:56.997Z,48.18
2018-04-15T03:12:57.016Z,48.09
2018-04-15T03:13:57.038Z,47.89
2018-04-15T03:14:56.804Z,47.8
2018-04-15T03:15:56.826Z,47.99
2018-04-15T03:16:57.100Z,48.09
2018-04-15T03:17:56.866Z,47.99
2018-04-15T03:18:57.138Z,47.8
2018-04-15T03:19:57.175Z,47.71
2018-04-15T03:20:56.934Z,47.99
2018-04-15T03:21:57.204Z,48.18
2018-04-15T03:22:56.970Z,48.47
2018-04-15T03:23:57.237Z,48.66
2018-04-15T03:24:57.258Z,48.75
2018-04-15T03:25:57.283Z,48.66
2018-04-15T03:26:57.303Z,49.14
2018-04-15T03:27:57.325Z,49.23
2018-04-15T03:28:57.090Z,48.75
2018-04-15T03:29:57.408Z,49.3
2018-04-15T03:30:57.139Z,49.33
2018-04-15T03:31:57.162Z,49.14
2018-04-15T03:32:57.429Z,49.23
2018-04-15T03:33:57.448Z,49.14
2018-04-15T03:34:57.216Z,48.95
2018-04-15T03:35:57.490Z,49.04
2018-04-15T03:36:57.256Z,48.95
2018-04-15T03:37:57.532Z,49.14
2018-04-15T03:38:57.551Z,49.14
2018-04-15T03:39:57.577Z,49.23
2018-04-15T03:40:57.596Z,49.23
2018-04-15T03:41:57.619Z,49.14
2018-04-15T03:42:57.633Z,49.04
2018-04-15T03:43:57.686Z,49.23
2018-04-15T03:44:57.671Z,49.04
2018-04-15T03:45:57.439Z,49.23
2018-04-15T03:46:57.713Z,49.33
2018-04-15T03:47:57.732Z,49.71
2018-04-15T03:48:57.500Z,50.07
2018-04-15T03:49:57.771Z,50.16
2018-04-15T03:50:57.796Z,50.84
2018-04-15T03:51:57.863Z,51.03
2018-04-15T03:52:57.580Z,51.21
2018-04-15T03:53:57.855Z,51.48
2018-04-15T03:54:57.877Z,51.38
2018-04-15T03:55:57.895Z,52.24
2018-04-15T03:56:57.915Z,52.05
2018-04-15T03:57:57.714Z,52.43
2018-04-15T03:58:57.958Z,52.43
2018-04-15T03:59:57.980Z,53.08
2018-04-15T04:00:57.999Z,53.17
2018-04-15T04:01:57.765Z,53.27
2018-04-15T04:02:58.041Z,52.88
2018-04-15T04:03:58.051Z,52.88
2018-04-15T04:04:58.075Z,53.27
2018-04-15T04:05:58.090Z,52.69
2018-04-15T04:06:58.160Z,52.79
2018-04-15T04:07:57.879Z,52.88
2018-04-15T04:08:58.153Z,53.27
2018-04-15T04:09:57.919Z,52.81
2018-04-15T04:10:58.196Z,52.81
2018-04-15T04:11:57.957Z,53
2018-04-15T04:12:58.233Z,52.53
2018-04-15T04:13:58.251Z,52.43
2018-04-15T04:14:58.271Z,52.53
2018-04-15T04:15:58.289Z,52.72
2018-04-15T04:16:58.310Z,52.34
2018-04-15T04:17:58.331Z,52.53
2018-04-15T04:18:58.352Z,52.62
2018-04-15T04:19:58.119Z,51.95
2018-04-15T04:20:58.138Z,51.86
2018-04-15T04:21:58.462Z,52.05
2018-04-15T04:22:58.428Z,50.9
2018-04-15T04:23:58.456Z,51
2018-04-15T04:24:58.472Z,51.19
2018-04-15T04:25:58.501Z,51.86
2018-04-15T04:26:58.516Z,51.76
2018-04-15T04:27:58.543Z,52.59
2018-04-15T04:28:58.561Z,52.31
2018-04-15T04:29:58.574Z,52.22
2018-04-15T04:30:58.596Z,52.22
2018-04-15T04:31:58.624Z,53.27
2018-04-15T04:32:58.637Z,52.88
2018-04-15T04:33:58.402Z,53.27
2018-04-15T04:34:58.674Z,54.48
2018-04-15T04:35:58.445Z,55.43
2018-04-15T04:36:58.510Z,56.01
2018-04-15T04:37:58.736Z,55.53
2018-04-15T04:38:58.753Z,55.62
2018-04-15T04:39:58.779Z,55.88
2018-04-15T04:40:58.793Z,55.62
2018-04-15T04:41:58.811Z,55.91
2018-04-15T04:42:58.832Z,56.26
2018-04-15T04:43:58.847Z,56.26
2018-04-15T04:44:58.902Z,55.98
2018-04-15T04:45:58.908Z,56.26
2018-04-15T04:46:58.906Z,56.07
2018-04-15T04:47:58.924Z,56.07
2018-04-15T04:48:58.947Z,55.82
2018-04-15T04:49:58.711Z,56.93
2018-04-15T04:50:58.731Z,57.22
2018-04-15T04:51:59.157Z,57.03
2018-04-15T04:52:59.021Z,56.93
2018-04-15T04:53:59.041Z,56.84
2018-04-15T04:54:59.061Z,57.12
2018-04-15T04:55:59.080Z,57.7
2018-04-15T04:56:58.839Z,57.6
2018-04-15T04:57:59.109Z,58.17
2018-04-15T04:58:59.144Z,58.36
2018-04-15T04:59:59.150Z,58.36
2018-04-15T05:00:59.165Z,58.46
2018-04-15T05:01:58.945Z,58.17
2018-04-15T05:02:59.218Z,57.89
2018-04-15T05:03:58.981Z,57.7
2018-04-15T05:04:59.000Z,57.79
2018-04-15T05:05:59.276Z,57.89
2018-04-15T05:06:59.341Z,57.6
2018-04-15T05:07:59.056Z,56.84
2018-04-15T05:08:59.327Z,57.15
2018-04-15T05:09:59.417Z,56.58
2018-04-15T05:10:59.375Z,55.91
2018-04-15T05:11:59.392Z,56.2
2018-04-15T05:12:59.409Z,56.87
2018-04-15T05:13:59.429Z,56.96
2018-04-15T05:14:59.193Z,56.87
2018-04-15T05:15:59.212Z,56.77
2018-04-15T05:16:59.481Z,56.58
2018-04-15T05:17:59.498Z,56.29
2018-04-15T05:18:59.270Z,56.2
2018-04-15T05:19:59.546Z,56.2
2018-04-15T05:20:59.566Z,56.1
2018-04-15T05:21:59.633Z,56.29
2018-04-15T05:22:59.603Z,55.72
2018-04-15T05:23:59.624Z,56.29
2018-04-15T05:24:59.639Z,56.1
2018-04-15T05:25:59.657Z,56.01
2018-04-15T05:26:59.683Z,55.82
2018-04-15T05:27:59.737Z,55.82
2018-04-15T05:28:59.719Z,55.91
2018-04-15T05:29:59.476Z,55.91
2018-04-15T05:30:59.497Z,55.91
2018-04-15T05:31:59.514Z,55.24
2018-04-15T05:32:59.789Z,55.18
2018-04-15T05:33:59.809Z,55.27
2018-04-15T05:34:59.576Z,55.53
2018-04-15T05:35:59.599Z,55.34
2018-04-15T05:36:59.870Z,55.36
2018-04-15T05:37:59.937Z,55.34
2018-04-15T05:38:59.904Z,55.18
2018-04-15T05:39:59.929Z,54.79
2018-04-15T05:40:59.956Z,54.6
2018-04-15T05:41:59.971Z,54.7
2018-04-15T05:43:00.001Z,55.46
2018-04-15T05:44:00.012Z,55.18
2018-04-15T05:45:00.034Z,55.08
2018-04-15T05:46:00.057Z,55.18
2018-04-15T05:46:59.815Z,54.5
2018-04-15T05:48:00.086Z,54.5
2018-04-15T05:49:00.106Z,54.22
2018-04-15T05:50:00.131Z,54.06
2018-04-15T05:51:00.166Z,53.49
2018-04-15T05:52:00.164Z,53.96
2018-04-15T05:53:00.241Z,54.22
2018-04-15T05:53:59.950Z,54.7
2018-04-15T05:55:00.225Z,54.5
2018-04-15T05:56:00.245Z,54.89
2018-04-15T05:57:00.270Z,54.41
2018-04-15T05:58:00.286Z,54.6
2018-04-15T05:59:00.305Z,54.91
2018-04-15T06:00:00.333Z,54.44
2018-04-15T06:01:00.345Z,54.34
2018-04-15T06:02:00.112Z,54.06
2018-04-15T06:03:00.394Z,53.96
2018-04-15T06:04:00.152Z,54.25
2018-04-15T06:05:00.423Z,54.44
2018-04-15T06:06:00.448Z,54.06
2018-04-15T06:07:00.468Z,54.06
2018-04-15T06:08:00.539Z,53.77
2018-04-15T06:09:00.508Z,53.58
2018-04-15T06:10:00.537Z,53.49
2018-04-15T06:11:00.548Z,53.32
2018-04-15T06:12:00.316Z,52.75
2018-04-15T06:13:00.336Z,52.84
2018-04-15T06:14:00.613Z,52.75
2018-04-15T06:15:00.691Z,52.84
2018-04-15T06:16:00.649Z,53.32
2018-04-15T06:17:00.670Z,52.94
2018-04-15T06:18:00.742Z,53.29
2018-04-15T06:19:00.709Z,53.03
2018-04-15T06:20:00.733Z,52.84
2018-04-15T06:21:00.498Z,52.65
2018-04-15T06:22:00.776Z,51.89
2018-04-15T06:23:00.540Z,52.17
2018-04-15T06:24:00.828Z,52.46
2018-04-15T06:25:00.831Z,51.7
2018-04-15T06:26:00.854Z,52.36
2018-04-15T06:27:00.876Z,52.26
2018-04-15T06:28:00.904Z,51.79
2018-04-15T06:29:00.921Z,52.17
2018-04-15T06:30:00.940Z,52.08
2018-04-15T06:31:00.957Z,51.53
2018-04-15T06:32:00.722Z,52.2
2018-04-15T06:33:01.111Z,52.08
2018-04-15T06:34:00.769Z,51.34
2018-04-15T06:35:01.041Z,51.43
2018-04-15T06:36:00.807Z,51.24
2018-04-15T06:37:01.081Z,51.15
2018-04-15T06:38:01.101Z,50.76
2018-04-15T06:39:01.123Z,50.57
2018-04-15T06:40:01.143Z,50.76
2018-04-15T06:41:01.166Z,50.67
2018-04-15T06:42:00.936Z,49.8
2018-04-15T06:43:01.205Z,50.86
2018-04-15T06:44:01.236Z,50.76
2018-04-15T06:45:01.247Z,50.48
2018-04-15T06:46:01.266Z,50.48
2018-04-15T06:47:01.279Z,50.02
2018-04-15T06:48:01.360Z,49.9
2018-04-15T06:49:01.332Z,49.64
2018-04-15T06:50:01.102Z,49.74
2018-04-15T06:51:01.389Z,49.74
2018-04-15T06:52:01.405Z,49.64
2018-04-15T06:53:01.465Z,49.74
2018-04-15T06:54:01.183Z,49.26
2018-04-15T06:55:01.456Z,48.97
2018-04-15T06:56:01.478Z,48.88
2018-04-15T06:57:01.244Z,49.16
2018-04-15T06:58:01.513Z,49.55
2018-04-15T06:59:01.538Z,49.55
2018-04-15T07:00:01.560Z,50.02
2018-04-15T07:01:01.594Z,49.84
2018-04-15T07:02:01.612Z,49.35
2018-04-15T07:03:01.620Z,49.55
2018-04-15T07:04:01.647Z,49.35
2018-04-15T07:05:01.673Z,49
2018-04-15T07:06:01.691Z,48.33
2018-04-15T07:07:01.735Z,48.04
2018-04-15T07:08:01.739Z,47.94
2018-04-15T07:09:01.803Z,47.58
2018-04-15T07:10:01.522Z,47.01
2018-04-15T07:11:01.796Z,46.82
2018-04-15T07:12:01.819Z,46.91
2018-04-15T07:13:01.843Z,47.39
2018-04-15T07:14:01.871Z,47.3
2018-04-15T07:15:01.882Z,47.58
2018-04-15T07:16:01.908Z,47.78
2018-04-15T07:17:01.935Z,47.78
2018-04-15T07:18:01.946Z,47.68
2018-04-15T07:19:01.968Z,47.85
2018-04-15T07:20:01.989Z,48.44
2018-04-15T07:21:02.015Z,47.97
2018-04-15T07:22:02.029Z,48.25
2018-04-15T07:23:02.056Z,48.25
2018-04-15T07:24:02.123Z,48.33
2018-04-15T07:25:02.116Z,48.44
2018-04-15T07:26:02.125Z,47.58
2018-04-15T07:27:02.145Z,48.25
2018-04-15T07:28:02.177Z,48.23
2018-04-15T07:29:02.189Z,48.52
2018-04-15T07:30:01.958Z,48.71
2018-04-15T07:31:02.235Z,48.8
2018-04-15T07:32:02.001Z,49.19
2018-04-15T07:33:02.280Z,49.45
2018-04-15T07:34:02.395Z,49.29
2018-04-15T07:35:02.316Z,48.9
2018-04-15T07:36:02.342Z,49.09
2018-04-15T07:37:02.364Z,48.9
2018-04-15T07:38:02.387Z,48.9
2018-04-15T07:39:02.460Z,48.23
2018-04-15T07:40:02.427Z,48.16
2018-04-15T07:41:02.450Z,48.25
2018-04-15T07:42:02.471Z,47.78
2018-04-15T07:43:02.500Z,46.94
2018-04-15T07:44:02.505Z,46.08
2018-04-15T07:45:02.281Z,45.89
2018-04-15T07:46:02.309Z,45.59
2018-04-15T07:47:02.579Z,45.62
2018-04-15T07:48:02.616Z,45.23
2018-04-15T07:49:02.729Z,45.23
2018-04-15T07:50:02.397Z,44.56
2018-04-15T07:51:02.671Z,43.91
2018-04-15T07:52:02.440Z,43.9
2018-04-15T07:53:02.481Z,44.56
2018-04-15T07:54:02.792Z,45.04
2018-04-15T07:55:02.765Z,44.95
2018-04-15T07:56:02.529Z,45.33
2018-04-15T07:57:02.552Z,44.85
2018-04-15T07:58:02.827Z,45.43
2018-04-15T07:59:02.852Z,45.4
2018-04-15T08:00:02.620Z,44.95
2018-04-15T08:01:02.899Z,45.14
2018-04-15T08:02:02.918Z,44.09
2018-04-15T08:03:02.945Z,43.91
2018-04-15T08:04:02.964Z,44.01
2018-04-15T08:05:02.992Z,43.53
2018-04-15T08:06:03.009Z,42.96
2018-04-15T08:07:02.786Z,42.86
2018-04-15T08:08:02.802Z,42.6
2018-04-15T08:09:03.126Z,42.4
2018-04-15T08:10:03.099Z,41.73
2018-04-15T08:11:03.125Z,41.08
2018-04-15T08:12:03.148Z,40.99
2018-04-15T08:13:03.177Z,40.99
2018-04-15T08:14:02.944Z,40.79
2018-04-15T08:15:03.220Z,40.31
2018-04-15T08:16:03.247Z,40.05
2018-04-15T08:17:03.267Z,39.85
2018-04-15T08:18:03.290Z,40.31
2018-04-15T08:19:03.064Z,39.93
2018-04-15T08:20:03.083Z,39.95
2018-04-15T08:21:03.361Z,39.66
2018-04-15T08:22:03.132Z,39.85
2018-04-15T08:23:03.414Z,39.28
2018-04-15T08:24:03.482Z,39.58
2018-04-15T08:25:03.456Z,39.66
2018-04-15T08:26:03.227Z,39.66
2018-04-15T08:27:03.504Z,39.85
2018-04-15T08:28:03.529Z,39.85
2018-04-15T08:29:03.558Z,40.22
2018-04-15T08:30:03.574Z,40.43
2018-04-15T08:31:03.636Z,40.22
2018-04-15T08:32:03.625Z,40.43
2018-04-15T08:33:03.651Z,40.05
2018-04-15T08:34:03.675Z,39.95
2018-04-15T08:35:03.695Z,39.66
2018-04-15T08:36:03.466Z,39.2
2018-04-15T08:37:03.758Z,39.01
2018-04-15T08:38:03.769Z,39.29
2018-04-15T08:39:03.849Z,39.29
2018-04-15T08:40:03.560Z,39.66
2018-04-15T08:41:03.589Z,39.29
2018-04-15T08:42:03.863Z,38.53
2018-04-15T08:43:03.887Z,38.34
2018-04-15T08:44:03.911Z,38.07
2018-04-15T08:45:03.936Z,37.97
2018-04-15T08:46:03.705Z,37.97
2018-04-15T08:47:03.727Z,38.07
2018-04-15T08:48:04.010Z,37.39
2018-04-15T08:49:04.033Z,37.87
2018-04-15T08:50:03.805Z,39.11
2018-04-15T08:51:03.823Z,39.76
2018-04-15T08:52:03.847Z,39.76
2018-04-15T08:53:03.871Z,39.76
2018-04-15T08:54:03.946Z,39.85
2018-04-15T08:55:04.176Z,39.28
2018-04-15T08:56:03.945Z,38.79
2018-04-15T08:57:04.220Z,38.43
2018-04-15T08:58:03.992Z,37.95
2018-04-15T08:59:04.270Z,38.43
2018-04-15T09:00:04.303Z,38.62
2018-04-15T09:01:04.060Z,38.62
2018-04-15T09:02:04.087Z,38.72
2018-04-15T09:03:04.374Z,39.01
2018-04-15T09:04:04.392Z,38.6
2018-04-15T09:05:04.416Z,38.24
2018-04-15T09:06:04.445Z,37.85
2018-04-15T09:07:04.465Z,37.97
2018-04-15T09:08:04.491Z,37.3
2018-04-15T09:09:04.320Z,37.01
2018-04-15T09:10:04.285Z,36.72
2018-04-15T09:11:04.559Z,36.54
2018-04-15T09:12:04.331Z,36.16
2018-04-15T09:13:04.610Z,35.89
2018-04-15T09:14:04.635Z,35.12
2018-04-15T09:15:04.656Z,35.12
2018-04-15T09:16:04.685Z,34.64
2018-04-15T09:17:04.449Z,34.64
2018-04-15T09:18:04.477Z,34.54
2018-04-15T09:19:04.766Z,34.17
2018-04-15T09:20:04.526Z,33.89
2018-04-15T09:21:04.557Z,33.81
2018-04-15T09:22:04.827Z,33.91
2018-04-15T09:23:04.601Z,33.98
2018-04-15T09:24:04.931Z,33.98
2018-04-15T09:25:04.655Z,33.61
2018-04-15T09:26:04.932Z,33.42
2018-04-15T09:27:04.711Z,33.34
2018-04-15T09:28:04.987Z,33.61
2018-04-15T09:29:04.806Z,34.29
2018-04-15T09:30:05.084Z,34.17
2018-04-15T09:31:04.807Z,33.71
2018-04-15T09:32:04.834Z,33.23
2018-04-15T09:33:05.114Z,33.15
2018-04-15T09:34:04.886Z,32.95
2018-04-15T09:35:04.919Z,32.47
2018-04-15T09:36:05.191Z,31.62
2018-04-15T09:37:05.265Z,31.93
2018-04-15T09:38:05.245Z,31.91
2018-04-15T09:39:05.425Z,31.72
2018-04-15T09:40:05.301Z,31.14
2018-04-15T09:41:05.406Z,31.15
2018-04-15T09:42:05.352Z,30.3
2018-04-15T09:43:05.126Z,30.12
2018-04-15T09:44:05.402Z,28.87
2018-04-15T09:45:05.175Z,30.32
2018-04-15T09:46:05.456Z,30.96
2018-04-15T09:47:05.230Z,31.14
2018-04-15T09:48:05.511Z,31.33
2018-04-15T09:49:05.287Z,31.35
2018-04-15T09:50:05.572Z,31.35
2018-04-15T09:51:05.348Z,31.15
2018-04-15T09:52:05.623Z,31.45
2018-04-15T09:53:05.400Z,30.77
2018-04-15T09:54:05.736Z,30.79
2018-04-15T09:55:05.708Z,30.21
2018-04-15T09:56:05.738Z,29.55
2018-04-15T09:57:05.508Z,28.69
2018-04-15T09:58:05.792Z,28.22
2018-04-15T09:59:05.922Z,27.66
2018-04-15T10:00:05.593Z,27.94
2018-04-15T10:01:05.619Z,26.79
2018-04-15T10:02:05.908Z,27.19
2018-04-15T10:03:05.674Z,26.42
2018-04-15T10:04:05.963Z,25.94
2018-04-15T10:05:05.730Z,26.14
2018-04-15T10:06:06.015Z,26.14
2018-04-15T10:07:06.041Z,26.14
2018-04-15T10:08:06.068Z,26.05
2018-04-15T10:09:06.254Z,25.37
2018-04-15T10:10:06.125Z,24.79
2018-04-15T10:11:06.099Z,24.71
2018-04-15T10:12:06.184Z,25.29
2018-04-15T10:13:06.212Z,26.61
2018-04-15T10:14:06.242Z,26.21
2018-04-15T10:15:06.278Z,25.83
2018-04-15T10:16:06.041Z,26.04
2018-04-15T10:17:06.071Z,25.08
2018-04-15T10:18:06.354Z,24.32
2018-04-15T10:19:06.482Z,23.26
2018-04-15T10:20:06.412Z,24.04
2018-04-15T10:21:06.440Z,24.8
2018-04-15T10:22:06.473Z,24.5
2018-04-15T10:23:06.502Z,24.32
2018-04-15T10:24:06.392Z,24.32
2018-04-15T10:25:06.567Z,23.65
2018-04-15T10:26:06.591Z,23.37
2018-04-15T10:27:06.616Z,23.09
2018-04-15T10:28:06.647Z,22.89
2018-04-15T10:29:06.426Z,23.18
2018-04-15T10:30:06.710Z,22.69
2018-04-15T10:31:06.742Z,22.89
2018-04-15T10:32:06.769Z,22.51
2018-04-15T10:33:06.800Z,22.42
2018-04-15T10:34:06.575Z,22.71
2018-04-15T10:35:06.860Z,22.71
2018-04-15T10:36:06.634Z,23.18
2018-04-15T10:37:06.919Z,22.99
2018-04-15T10:38:06.689Z,23.27
2018-04-15T10:39:07.024Z,23.37
2018-04-15T10:40:07.000Z,23.65
2018-04-15T10:41:06.784Z,24.04
2018-04-15T10:42:07.072Z,24.62
2018-04-15T10:43:07.104Z,24.33
2018-04-15T10:44:06.874Z,24.04
2018-04-15T10:45:07.155Z,23.94
2018-04-15T10:46:07.265Z,24.04
2018-04-15T10:47:07.229Z,23.57
2018-04-15T10:48:06.991Z,23.57
2018-04-15T10:49:07.279Z,23.65
2018-04-15T10:50:07.323Z,24.04
2018-04-15T10:51:07.336Z,23.65
2018-04-15T10:52:07.359Z,23.95
2018-04-15T10:53:07.392Z,23.57
2018-04-15T10:54:07.213Z,23.66
2018-04-15T10:55:07.446Z,23.55
2018-04-15T10:56:07.472Z,23.47
2018-04-15T10:57:07.502Z,23.47
2018-04-15T10:58:07.543Z,23.19
2018-04-15T10:59:07.557Z,21.84
2018-04-15T11:00:07.586Z,21.47
2018-04-15T11:01:07.362Z,20.91
2018-04-15T11:02:07.392Z,21
2018-04-15T11:03:07.421Z,20.71
2018-04-15T11:04:07.706Z,21.18
2018-04-15T11:05:07.739Z,21.66
2018-04-15T11:06:07.765Z,21.84
2018-04-15T11:07:07.802Z,21.17
2018-04-15T11:08:07.834Z,21.84
2018-04-15T11:09:07.651Z,21.47
2018-04-15T11:10:07.632Z,21.37
2018-04-15T11:11:07.915Z,21.57
2018-04-15T11:12:07.944Z,21.47
2018-04-15T11:13:07.977Z,21.47
2018-04-15T11:14:08.186Z,21.57
2018-04-15T11:15:07.780Z,21.18
2018-04-15T11:16:08.071Z,21.47
2018-04-15T11:17:08.094Z,21.56
2018-04-15T11:18:08.120Z,22.53
2018-04-15T11:19:07.886Z,22.99
2018-04-15T11:20:07.968Z,23.47
2018-04-15T11:21:08.202Z,23.47
2018-04-15T11:22:08.231Z,22.9
2018-04-15T11:23:08.006Z,22.71
2018-04-15T11:24:08.338Z,22.99
2018-04-15T11:25:08.312Z,22.99
2018-04-15T11:26:08.360Z,23.19
2018-04-15T11:27:08.131Z,23.19
2018-04-15T11:28:08.156Z,23.76
2018-04-15T11:29:08.185Z,23.76
2018-04-15T11:30:08.214Z,23.58
2018-04-15T11:31:08.492Z,23.58
2018-04-15T11:32:08.269Z,23.57
2018-04-15T11:33:08.297Z,23.75
2018-04-15T11:34:08.579Z,24.04
2018-04-15T11:35:08.606Z,24.13
2018-04-15T11:36:08.639Z,24.33
2018-04-15T11:37:08.662Z,24.33
2018-04-15T11:38:08.695Z,23.94
2018-04-15T11:39:08.784Z,24.32
2018-04-15T11:40:08.743Z,24.8
2018-04-15T11:41:08.770Z,24.8
2018-04-15T11:42:08.825Z,25.19
2018-04-15T11:43:08.828Z,24.9
2018-04-15T11:44:08.601Z,24.99
2018-04-15T11:45:08.907Z,25.67
2018-04-15T11:46:08.910Z,25.77
2018-04-15T11:47:08.943Z,25.29
2018-04-15T11:48:08.972Z,25.38
2018-04-15T11:49:09.001Z,25.19
2018-04-15T11:50:09.030Z,25.66
2018-04-15T11:51:09.072Z,25.56
2018-04-15T11:52:09.080Z,25.95
2018-04-15T11:53:09.109Z,25.85
2018-04-15T11:54:09.191Z,26.05
2018-04-15T11:55:08.914Z,25.67
2018-04-15T11:56:09.195Z,24.72
2018-04-15T11:57:09.221Z,24.52
2018-04-15T11:58:09.248Z,23.86
2018-04-15T11:59:09.023Z,23.58
2018-04-15T12:00:09.308Z,23.39
2018-04-15T12:01:09.335Z,22.81
2018-04-15T12:02:09.402Z,22.91
2018-04-15T12:03:09.392Z,22.06
2018-04-15T12:04:09.423Z,22.16
2018-04-15T12:05:09.452Z,21.58
2018-04-15T12:06:09.225Z,20.81
2018-04-15T12:07:09.506Z,20.45
2018-04-15T12:08:09.557Z,19.96
2018-04-15T12:09:09.615Z,20.07
2018-04-15T12:10:09.666Z,19.88
2018-04-15T12:11:09.621Z,19.29
2018-04-15T12:12:09.645Z,18.62
2018-04-15T12:13:09.671Z,18.92
2018-04-15T12:14:09.806Z,18.44
2018-04-15T12:15:09.737Z,18.35
2018-04-15T12:16:09.515Z,17.86
2018-04-15T12:17:09.834Z,18.25
2018-04-15T12:18:09.826Z,17.66
2018-04-15T12:19:09.871Z,17.96
2018-04-15T12:20:09.886Z,18.54
2018-04-15T12:21:09.669Z,18.72
2018-04-15T12:22:09.709Z,19.29
2018-04-15T12:23:09.993Z,19.78
2018-04-15T12:24:10.074Z,20.43
2018-04-15T12:25:10.051Z,20.14
2018-04-15T12:26:09.829Z,20.15
2018-04-15T12:27:10.114Z,19.76
2018-04-15T12:28:10.145Z,19.67
2018-04-15T12:29:10.181Z,20.06
2018-04-15T12:30:10.206Z,20.45
2018-04-15T12:31:09.983Z,21.02
2018-04-15T12:32:10.005Z,20.83
2018-04-15T12:33:10.044Z,20.83
2018-04-15T12:34:10.325Z,20.73
2018-04-15T12:35:10.107Z,21.02
2018-04-15T12:36:10.387Z,21.22
2018-04-15T12:37:10.423Z,20.83
2018-04-15T12:38:10.455Z,20.92
2018-04-15T12:39:10.275Z,21.11
2018-04-15T12:40:10.506Z,21.2
2018-04-15T12:41:10.541Z,21.4
2018-04-15T12:42:10.314Z,21.78
2018-04-15T12:43:10.593Z,21.97
2018-04-15T12:44:10.623Z,21.88
2018-04-15T12:45:10.655Z,21.58
2018-04-15T12:46:10.683Z,20.91
2018-04-15T12:47:10.710Z,20.92
2018-04-15T12:48:10.742Z,20.35
2018-04-15T12:49:10.795Z,19.29
2018-04-15T12:50:10.556Z,18.9
2018-04-15T12:51:10.584Z,18.9
2018-04-15T12:52:10.866Z,18.82
2018-04-15T12:53:10.902Z,18.44
2018-04-15T12:54:10.977Z,17.57
2018-04-15T12:55:10.967Z,17.29